sensor_id;sensor_type;location;lat;lon;timestamp;temperature;humidity
58983;DHT22;44771;49.982;8.560;2023-09-08T00:04:59;14.10;99.90
58983;DHT22;44771;49.982;8.560;2023-09-08T00:10:03;14.10;99.90
58983;DHT22;44771;49.982;8.560;2023-09-08T00:15:06;14.00;99.90
58983;DHT22;44771;49.982;8.560;2023-09-08T00:20:09;14.00;99.90
58983;DHT22;44771;49.982;8.560;2023-09-08T00:25:12;14.10;99.90
58983;DHT22;44771;49.982;8.560;2023-09-08T00:30:14;14.10;99.90
58983;DHT22;44771;49.982;8.560;2023-09-08T00:35:15;14.10;99.90
58983;DHT22;44771;49.982;8.560;2023-09-08T00:40:19;14.10;99.90
58983;DHT22;44771;49.982;8.560;2023-09-08T00:45:20;14.20;99.90
58983;DHT22;44771;49.982;8.560;2023-09-08T00:50:22;14.10;99.90
58983;DHT22;44771;49.982;8.560;2023-09-08T00:55:26;14.10;99.90
58983;DHT22;44771;49.982;8.560;2023-09-08T01:00:28;14.20;99.90
58983;DHT22;44771;49.982;8.560;2023-09-08T01:05:29;14.10;99.90
58983;DHT22;44771;49.982;8.560;2023-09-08T01:10:33;14.00;99.90
58983;DHT22;44771;49.982;8.560;2023-09-08T01:15:35;14.00;99.90
58983;DHT22;44771;49.982;8.560;2023-09-08T01:20:48;13.90;99.90
58983;DHT22;44771;49.982;8.560;2023-09-08T01:26:03;13.80;99.90
58983;DHT22;44771;49.982;8.560;2023-09-08T01:31:05;13.80;99.90
58983;DHT22;44771;49.982;8.560;2023-09-08T01:36:07;13.80;99.90
58983;DHT22;44771;49.982;8.560;2023-09-08T01:41:11;13.80;99.90
58983;DHT22;44771;49.982;8.560;2023-09-08T01:46:13;13.80;99.90
58983;DHT22;44771;49.982;8.560;2023-09-08T01:51:14;13.80;99.90
58983;DHT22;44771;49.982;8.560;2023-09-08T01:56:17;13.70;99.90
58983;DHT22;44771;49.982;8.560;2023-09-08T02:01:19;13.80;99.90
58983;DHT22;44771;49.982;8.560;2023-09-08T02:06:21;14.20;99.90
58983;DHT22;44771;49.982;8.560;2023-09-08T02:11:24;14.20;99.90
58983;DHT22;44771;49.982;8.560;2023-09-08T02:16:26;14.10;99.90
58983;DHT22;44771;49.982;8.560;2023-09-08T02:21:28;14.00;99.90
58983;DHT22;44771;49.982;8.560;2023-09-08T02:26:31;14.00;99.90
58983;DHT22;44771;49.982;8.560;2023-09-08T02:31:33;13.90;99.90
58983;DHT22;44771;49.982;8.560;2023-09-08T02:36:35;13.80;99.90
58983;DHT22;44771;49.982;8.560;2023-09-08T02:41:38;13.80;99.90
58983;DHT22;44771;49.982;8.560;2023-09-08T02:46:40;13.70;99.90
58983;DHT22;44771;49.982;8.560;2023-09-08T02:51:41;13.70;99.90
58983;DHT22;44771;49.982;8.560;2023-09-08T02:56:45;13.60;99.90
58983;DHT22;44771;49.982;8.560;2023-09-08T03:01:46;13.70;99.90
58983;DHT22;44771;49.982;8.560;2023-09-08T03:06:48;13.80;99.90
58983;DHT22;44771;49.982;8.560;2023-09-08T03:11:51;13.70;99.90
58983;DHT22;44771;49.982;8.560;2023-09-08T03:16:53;13.70;99.90
58983;DHT22;44771;49.982;8.560;2023-09-08T03:21:55;13.80;99.90
58983;DHT22;44771;49.982;8.560;2023-09-08T03:26:58;13.80;99.90
58983;DHT22;44771;49.982;8.560;2023-09-08T03:32:00;13.80;99.90
58983;DHT22;44771;49.982;8.560;2023-09-08T03:37:02;13.70;99.90
58983;DHT22;44771;49.982;8.560;2023-09-08T03:42:05;13.70;99.90
58983;DHT22;44771;49.982;8.560;2023-09-08T03:47:07;13.70;99.90
58983;DHT22;44771;49.982;8.560;2023-09-08T03:52:09;13.50;99.90
58983;DHT22;44771;49.982;8.560;2023-09-08T03:57:12;13.50;99.90
58983;DHT22;44771;49.982;8.560;2023-09-08T04:02:14;13.50;99.90
58983;DHT22;44771;49.982;8.560;2023-09-08T04:07:16;13.40;99.90
58983;DHT22;44771;49.982;8.560;2023-09-08T04:12:19;13.40;99.90
58983;DHT22;44771;49.982;8.560;2023-09-08T04:17:21;13.50;99.90
58983;DHT22;44771;49.982;8.560;2023-09-08T04:22:22;13.50;99.90
58983;DHT22;44771;49.982;8.560;2023-09-08T04:27:26;13.40;99.90
58983;DHT22;44771;49.982;8.560;2023-09-08T04:32:27;13.40;99.90
58983;DHT22;44771;49.982;8.560;2023-09-08T04:37:29;13.30;99.90
58983;DHT22;44771;49.982;8.560;2023-09-08T04:42:32;13.30;99.90
58983;DHT22;44771;49.982;8.560;2023-09-08T04:47:34;13.30;99.90
58983;DHT22;44771;49.982;8.560;2023-09-08T04:52:36;13.20;99.90
58983;DHT22;44771;49.982;8.560;2023-09-08T04:57:39;13.20;99.90
58983;DHT22;44771;49.982;8.560;2023-09-08T05:02:48;13.20;99.90
58983;DHT22;44771;49.982;8.560;2023-09-08T05:07:50;13.10;99.90
58983;DHT22;44771;49.982;8.560;2023-09-08T05:12:57;12.90;99.90
58983;DHT22;44771;49.982;8.560;2023-09-08T05:17:58;13.00;99.90
58983;DHT22;44771;49.982;8.560;2023-09-08T05:23:04;13.00;99.90
58983;DHT22;44771;49.982;8.560;2023-09-08T05:34:14;13.10;99.90
58983;DHT22;44771;49.982;8.560;2023-09-08T05:39:16;13.10;99.90
58983;DHT22;44771;49.982;8.560;2023-09-08T05:44:18;13.20;99.90
58983;DHT22;44771;49.982;8.560;2023-09-08T05:49:21;13.30;99.90
58983;DHT22;44771;49.982;8.560;2023-09-08T05:54:23;13.40;99.90
58983;DHT22;44771;49.982;8.560;2023-09-08T05:59:25;13.60;99.90
58983;DHT22;44771;49.982;8.560;2023-09-08T06:04:28;13.70;99.90
58983;DHT22;44771;49.982;8.560;2023-09-08T06:09:33;13.80;99.90
58983;DHT22;44771;49.982;8.560;2023-09-08T06:14:35;13.90;99.90
58983;DHT22;44771;49.982;8.560;2023-09-08T06:19:38;14.00;99.90
58983;DHT22;44771;49.982;8.560;2023-09-08T06:24:40;14.10;99.90
58983;DHT22;44771;49.982;8.560;2023-09-08T06:29:41;14.30;99.90
58983;DHT22;44771;49.982;8.560;2023-09-08T06:34:45;14.40;99.90
58983;DHT22;44771;49.982;8.560;2023-09-08T06:39:46;14.60;99.90
58983;DHT22;44771;49.982;8.560;2023-09-08T06:44:48;14.70;99.90
58983;DHT22;44771;49.982;8.560;2023-09-08T06:49:51;14.90;99.90
58983;DHT22;44771;49.982;8.560;2023-09-08T06:54:53;15.00;99.90
58983;DHT22;44771;49.982;8.560;2023-09-08T06:59:55;15.20;99.90
58983;DHT22;44771;49.982;8.560;2023-09-08T07:04:58;15.40;99.90
58983;DHT22;44771;49.982;8.560;2023-09-08T07:10:00;15.70;99.90
58983;DHT22;44771;49.982;8.560;2023-09-08T07:15:02;15.80;99.90
58983;DHT22;44771;49.982;8.560;2023-09-08T07:20:06;16.00;99.90
58983;DHT22;44771;49.982;8.560;2023-09-08T07:25:08;16.20;99.90
58983;DHT22;44771;49.982;8.560;2023-09-08T07:30:11;16.60;99.90
58983;DHT22;44771;49.982;8.560;2023-09-08T07:35:14;17.60;99.90
58983;DHT22;44771;49.982;8.560;2023-09-08T07:40:16;18.60;99.90
58983;DHT22;44771;49.982;8.560;2023-09-08T07:45:18;19.30;99.90
58983;DHT22;44771;49.982;8.560;2023-09-08T07:50:22;19.30;99.90
58983;DHT22;44771;49.982;8.560;2023-09-08T07:55:25;19.50;99.90
58983;DHT22;44771;49.982;8.560;2023-09-08T08:00:26;19.90;99.90
58983;DHT22;44771;49.982;8.560;2023-09-08T08:05:29;20.00;99.90
58983;DHT22;44771;49.982;8.560;2023-09-08T08:10:32;20.40;99.90
58983;DHT22;44771;49.982;8.560;2023-09-08T08:15:38;20.90;99.90
58983;DHT22;44771;49.982;8.560;2023-09-08T08:20:41;21.40;99.90
58983;DHT22;44771;49.982;8.560;2023-09-08T08:25:43;21.80;98.70
58983;DHT22;44771;49.982;8.560;2023-09-08T08:30:45;21.90;99.50
58983;DHT22;44771;49.982;8.560;2023-09-08T08:35:51;22.00;98.30
58983;DHT22;44771;49.982;8.560;2023-09-08T08:40:53;22.30;97.20
58983;DHT22;44771;49.982;8.560;2023-09-08T08:45:57;22.50;97.30
58983;DHT22;44771;49.982;8.560;2023-09-08T08:51:00;22.80;95.70
58983;DHT22;44771;49.982;8.560;2023-09-08T08:56:03;23.10;95.20
58983;DHT22;44771;49.982;8.560;2023-09-08T09:01:06;23.40;95.10
58983;DHT22;44771;49.982;8.560;2023-09-08T09:06:11;23.70;94.70
58983;DHT22;44771;49.982;8.560;2023-09-08T09:11:13;24.00;92.40
58983;DHT22;44771;49.982;8.560;2023-09-08T09:16:14;24.40;92.90
58983;DHT22;44771;49.982;8.560;2023-09-08T09:21:18;24.60;90.70
58983;DHT22;44771;49.982;8.560;2023-09-08T09:26:24;24.80;90.10
58983;DHT22;44771;49.982;8.560;2023-09-08T09:31:26;25.00;90.40
58983;DHT22;44771;49.982;8.560;2023-09-08T09:36:29;25.20;91.60
58983;DHT22;44771;49.982;8.560;2023-09-08T09:41:31;25.20;87.20
58983;DHT22;44771;49.982;8.560;2023-09-08T09:46:33;25.40;86.30
58983;DHT22;44771;49.982;8.560;2023-09-08T09:51:40;25.50;86.40
58983;DHT22;44771;49.982;8.560;2023-09-08T09:56:43;25.70;84.40
58983;DHT22;44771;49.982;8.560;2023-09-08T10:01:47;25.80;83.90
58983;DHT22;44771;49.982;8.560;2023-09-08T10:06:51;25.90;83.40
58983;DHT22;44771;49.982;8.560;2023-09-08T10:11:54;26.10;81.40
58983;DHT22;44771;49.982;8.560;2023-09-08T10:16:59;26.30;83.70
58983;DHT22;44771;49.982;8.560;2023-09-08T10:22:04;26.30;82.90
58983;DHT22;44771;49.982;8.560;2023-09-08T10:27:09;26.60;82.50
58983;DHT22;44771;49.982;8.560;2023-09-08T10:32:11;26.60;79.60
58983;DHT22;44771;49.982;8.560;2023-09-08T10:37:22;26.50;80.40
58983;DHT22;44771;49.982;8.560;2023-09-08T10:42:25;26.80;80.30
58983;DHT22;44771;49.982;8.560;2023-09-08T10:47:31;27.20;76.00
58983;DHT22;44771;49.982;8.560;2023-09-08T10:52:35;27.50;77.20
58983;DHT22;44771;49.982;8.560;2023-09-08T10:57:37;27.10;73.10
58983;DHT22;44771;49.982;8.560;2023-09-08T11:02:39;27.20;76.90
58983;DHT22;44771;49.982;8.560;2023-09-08T11:07:43;27.60;75.70
58983;DHT22;44771;49.982;8.560;2023-09-08T11:12:46;27.60;76.30
58983;DHT22;44771;49.982;8.560;2023-09-08T11:17:50;27.70;75.10
58983;DHT22;44771;49.982;8.560;2023-09-08T11:22:56;28.00;71.90
58983;DHT22;44771;49.982;8.560;2023-09-08T11:27:58;27.70;71.00
58983;DHT22;44771;49.982;8.560;2023-09-08T11:33:01;27.60;72.40
58983;DHT22;44771;49.982;8.560;2023-09-08T11:38:05;27.60;73.10
58983;DHT22;44771;49.982;8.560;2023-09-08T11:43:07;27.70;73.20
58983;DHT22;44771;49.982;8.560;2023-09-08T11:48:09;27.70;69.40
58983;DHT22;44771;49.982;8.560;2023-09-08T11:53:18;27.90;70.30
58983;DHT22;44771;49.982;8.560;2023-09-08T11:58:21;27.90;70.10
58983;DHT22;44771;49.982;8.560;2023-09-08T12:03:23;27.90;71.00
58983;DHT22;44771;49.982;8.560;2023-09-08T12:08:27;27.90;67.40
58983;DHT22;44771;49.982;8.560;2023-09-08T12:13:29;28.10;67.60
58983;DHT22;44771;49.982;8.560;2023-09-08T12:18:37;28.20;69.60
58983;DHT22;44771;49.982;8.560;2023-09-08T12:23:49;28.40;64.00
58983;DHT22;44771;49.982;8.560;2023-09-08T12:28:51;28.60;67.90
58983;DHT22;44771;49.982;8.560;2023-09-08T12:33:53;28.70;66.00
58983;DHT22;44771;49.982;8.560;2023-09-08T12:38:56;28.80;66.90
58983;DHT22;44771;49.982;8.560;2023-09-08T12:43:58;29.00;67.60
58983;DHT22;44771;49.982;8.560;2023-09-08T12:48:59;29.10;64.90
58983;DHT22;44771;49.982;8.560;2023-09-08T12:54:02;28.90;67.80
58983;DHT22;44771;49.982;8.560;2023-09-08T12:59:04;29.00;65.30
58983;DHT22;44771;49.982;8.560;2023-09-08T13:04:06;29.00;64.90
58983;DHT22;44771;49.982;8.560;2023-09-08T13:09:09;29.10;65.70
58983;DHT22;44771;49.982;8.560;2023-09-08T13:14:11;29.00;65.90
58983;DHT22;44771;49.982;8.560;2023-09-08T13:19:13;28.90;64.80
58983;DHT22;44771;49.982;8.560;2023-09-08T13:24:16;28.70;65.10
58983;DHT22;44771;49.982;8.560;2023-09-08T13:29:18;28.80;64.30
58983;DHT22;44771;49.982;8.560;2023-09-08T13:34:20;28.90;62.60
58983;DHT22;44771;49.982;8.560;2023-09-08T13:39:23;28.80;64.10
58983;DHT22;44771;49.982;8.560;2023-09-08T13:44:25;28.90;64.10
58983;DHT22;44771;49.982;8.560;2023-09-08T13:49:27;28.90;65.90
58983;DHT22;44771;49.982;8.560;2023-09-08T13:54:32;29.00;64.00
58983;DHT22;44771;49.982;8.560;2023-09-08T13:59:35;29.00;65.00
58983;DHT22;44771;49.982;8.560;2023-09-08T14:04:38;29.00;66.30
58983;DHT22;44771;49.982;8.560;2023-09-08T14:09:45;29.00;64.80
58983;DHT22;44771;49.982;8.560;2023-09-08T14:14:50;29.10;62.90
58983;DHT22;44771;49.982;8.560;2023-09-08T14:19:52;29.00;66.20
58983;DHT22;44771;49.982;8.560;2023-09-08T14:24:55;29.20;64.40
58983;DHT22;44771;49.982;8.560;2023-09-08T14:29:57;29.10;62.60
58983;DHT22;44771;49.982;8.560;2023-09-08T14:34:59;29.00;61.90
58983;DHT22;44771;49.982;8.560;2023-09-08T14:40:02;29.00;63.90
58983;DHT22;44771;49.982;8.560;2023-09-08T14:45:05;28.70;65.00
58983;DHT22;44771;49.982;8.560;2023-09-08T14:50:08;28.80;61.80
58983;DHT22;44771;49.982;8.560;2023-09-08T14:55:11;28.70;62.80
58983;DHT22;44771;49.982;8.560;2023-09-08T15:00:14;28.60;63.30
58983;DHT22;44771;49.982;8.560;2023-09-08T15:05:16;28.60;62.40
58983;DHT22;44771;49.982;8.560;2023-09-08T15:10:19;28.50;61.50
58983;DHT22;44771;49.982;8.560;2023-09-08T15:15:21;28.40;63.10
58983;DHT22;44771;49.982;8.560;2023-09-08T15:20:23;28.20;63.60
58983;DHT22;44771;49.982;8.560;2023-09-08T15:25:26;28.00;63.50
58983;DHT22;44771;49.982;8.560;2023-09-08T15:30:28;27.90;65.40
58983;DHT22;44771;49.982;8.560;2023-09-08T15:35:30;27.60;65.90
58983;DHT22;44771;49.982;8.560;2023-09-08T15:40:33;27.50;66.30
58983;DHT22;44771;49.982;8.560;2023-09-08T15:45:35;27.60;65.90
58983;DHT22;44771;49.982;8.560;2023-09-08T15:50:37;27.50;64.40
58983;DHT22;44771;49.982;8.560;2023-09-08T15:55:40;27.20;65.10
58983;DHT22;44771;49.982;8.560;2023-09-08T16:00:42;27.00;68.50
58983;DHT22;44771;49.982;8.560;2023-09-08T16:05:44;27.00;65.90
58983;DHT22;44771;49.982;8.560;2023-09-08T16:10:47;27.10;65.90
58983;DHT22;44771;49.982;8.560;2023-09-08T16:15:50;27.20;65.20
58983;DHT22;44771;49.982;8.560;2023-09-08T16:20:51;27.00;68.20
58983;DHT22;44771;49.982;8.560;2023-09-08T16:25:56;26.90;65.90
58983;DHT22;44771;49.982;8.560;2023-09-08T16:31:03;26.70;67.30
58983;DHT22;44771;49.982;8.560;2023-09-08T16:36:05;26.70;67.30
58983;DHT22;44771;49.982;8.560;2023-09-08T16:41:08;26.70;65.30
58983;DHT22;44771;49.982;8.560;2023-09-08T16:46:10;26.40;68.70
58983;DHT22;44771;49.982;8.560;2023-09-08T16:51:12;26.00;68.60
58983;DHT22;44771;49.982;8.560;2023-09-08T16:56:15;26.20;69.10
58983;DHT22;44771;49.982;8.560;2023-09-08T17:01:17;26.20;67.50
58983;DHT22;44771;49.982;8.560;2023-09-08T17:06:19;25.80;69.60
58983;DHT22;44771;49.982;8.560;2023-09-08T17:11:22;25.20;74.80
58983;DHT22;44771;49.982;8.560;2023-09-08T17:16:24;24.70;78.70
58983;DHT22;44771;49.982;8.560;2023-09-08T17:21:26;24.20;81.70
58983;DHT22;44771;49.982;8.560;2023-09-08T17:26:29;23.80;84.70
58983;DHT22;44771;49.982;8.560;2023-09-08T17:31:31;23.40;87.20
58983;DHT22;44771;49.982;8.560;2023-09-08T17:36:32;23.10;88.70
58983;DHT22;44771;49.982;8.560;2023-09-08T17:41:36;22.70;89.70
58983;DHT22;44771;49.982;8.560;2023-09-08T17:46:37;22.50;91.60
58983;DHT22;44771;49.982;8.560;2023-09-08T17:51:39;22.10;92.20
58983;DHT22;44771;49.982;8.560;2023-09-08T17:56:43;21.70;92.80
58983;DHT22;44771;49.982;8.560;2023-09-08T18:01:44;21.50;93.70
58983;DHT22;44771;49.982;8.560;2023-09-08T18:06:46;21.20;95.20
58983;DHT22;44771;49.982;8.560;2023-09-08T18:11:49;20.90;96.10
58983;DHT22;44771;49.982;8.560;2023-09-08T18:16:51;20.60;97.50
58983;DHT22;44771;49.982;8.560;2023-09-08T18:21:53;20.20;98.90
58983;DHT22;44771;49.982;8.560;2023-09-08T18:26:56;20.00;99.90
58983;DHT22;44771;49.982;8.560;2023-09-08T18:31:58;19.70;99.90
58983;DHT22;44771;49.982;8.560;2023-09-08T18:37:00;19.50;99.90
58983;DHT22;44771;49.982;8.560;2023-09-08T18:42:04;19.40;99.90
58983;DHT22;44771;49.982;8.560;2023-09-08T18:47:06;19.30;99.90
58983;DHT22;44771;49.982;8.560;2023-09-08T18:52:08;19.00;99.90
58983;DHT22;44771;49.982;8.560;2023-09-08T18:57:11;18.80;99.90
58983;DHT22;44771;49.982;8.560;2023-09-08T19:02:12;18.70;99.90
58983;DHT22;44771;49.982;8.560;2023-09-08T19:07:15;18.60;99.90
58983;DHT22;44771;49.982;8.560;2023-09-08T19:12:19;18.40;99.90
58983;DHT22;44771;49.982;8.560;2023-09-08T19:17:21;18.20;99.90
58983;DHT22;44771;49.982;8.560;2023-09-08T19:22:22;18.10;99.90
58983;DHT22;44771;49.982;8.560;2023-09-08T19:27:26;18.00;99.90
58983;DHT22;44771;49.982;8.560;2023-09-08T19:32:27;17.80;99.90
58983;DHT22;44771;49.982;8.560;2023-09-08T19:37:29;17.70;99.90
58983;DHT22;44771;49.982;8.560;2023-09-08T19:42:32;17.60;99.90
58983;DHT22;44771;49.982;8.560;2023-09-08T19:47:34;17.30;99.90
58983;DHT22;44771;49.982;8.560;2023-09-08T19:52:36;17.10;99.90
58983;DHT22;44771;49.982;8.560;2023-09-08T19:57:39;17.00;99.90
58983;DHT22;44771;49.982;8.560;2023-09-08T20:02:41;17.10;99.90
58983;DHT22;44771;49.982;8.560;2023-09-08T20:07:43;17.00;99.90
58983;DHT22;44771;49.982;8.560;2023-09-08T20:12:49;16.90;99.90
58983;DHT22;44771;49.982;8.560;2023-09-08T20:17:51;16.90;99.90
58983;DHT22;44771;49.982;8.560;2023-09-08T20:22:52;16.80;99.90
58983;DHT22;44771;49.982;8.560;2023-09-08T20:27:56;16.70;99.90
58983;DHT22;44771;49.982;8.560;2023-09-08T20:32:57;16.50;99.90
58983;DHT22;44771;49.982;8.560;2023-09-08T20:37:59;16.50;99.90
58983;DHT22;44771;49.982;8.560;2023-09-08T20:43:02;16.30;99.90
58983;DHT22;44771;49.982;8.560;2023-09-08T20:48:04;16.10;99.90
58983;DHT22;44771;49.982;8.560;2023-09-08T20:53:06;16.10;99.90
58983;DHT22;44771;49.982;8.560;2023-09-08T20:58:09;16.00;99.90
58983;DHT22;44771;49.982;8.560;2023-09-08T21:03:11;16.00;99.90
58983;DHT22;44771;49.982;8.560;2023-09-08T21:08:13;15.80;99.90
58983;DHT22;44771;49.982;8.560;2023-09-08T21:13:16;15.80;99.90
58983;DHT22;44771;49.982;8.560;2023-09-08T21:18:18;15.80;99.90
58983;DHT22;44771;49.982;8.560;2023-09-08T21:23:20;15.70;99.90
58983;DHT22;44771;49.982;8.560;2023-09-08T21:28:23;15.50;99.90
58983;DHT22;44771;49.982;8.560;2023-09-08T21:33:25;15.50;99.90
58983;DHT22;44771;49.982;8.560;2023-09-08T21:38:27;15.40;99.90
58983;DHT22;44771;49.982;8.560;2023-09-08T21:43:30;15.40;99.90
58983;DHT22;44771;49.982;8.560;2023-09-08T21:48:32;15.30;99.90
58983;DHT22;44771;49.982;8.560;2023-09-08T21:53:34;15.20;99.90
58983;DHT22;44771;49.982;8.560;2023-09-08T21:58:37;15.10;99.90
58983;DHT22;44771;49.982;8.560;2023-09-08T22:03:40;15.20;99.90
58983;DHT22;44771;49.982;8.560;2023-09-08T22:08:45;15.20;99.90
58983;DHT22;44771;49.982;8.560;2023-09-08T22:13:49;15.20;99.90
58983;DHT22;44771;49.982;8.560;2023-09-08T22:18:51;15.20;99.90
58983;DHT22;44771;49.982;8.560;2023-09-08T22:23:53;15.30;99.90
58983;DHT22;44771;49.982;8.560;2023-09-08T22:28:56;15.20;99.90
58983;DHT22;44771;49.982;8.560;2023-09-08T22:33:58;15.10;99.90
58983;DHT22;44771;49.982;8.560;2023-09-08T22:38:59;15.10;99.90
58983;DHT22;44771;49.982;8.560;2023-09-08T22:44:03;15.10;99.90
58983;DHT22;44771;49.982;8.560;2023-09-08T22:49:05;15.20;99.90
58983;DHT22;44771;49.982;8.560;2023-09-08T22:54:07;15.50;99.90
58983;DHT22;44771;49.982;8.560;2023-09-08T22:59:10;15.80;99.90
58983;DHT22;44771;49.982;8.560;2023-09-08T23:04:12;15.90;99.90
58983;DHT22;44771;49.982;8.560;2023-09-08T23:09:13;15.90;99.90
58983;DHT22;44771;49.982;8.560;2023-09-08T23:14:17;15.80;99.90
58983;DHT22;44771;49.982;8.560;2023-09-08T23:19:18;15.80;99.90
58983;DHT22;44771;49.982;8.560;2023-09-08T23:24:20;15.70;99.90
58983;DHT22;44771;49.982;8.560;2023-09-08T23:29:23;15.60;99.90
58983;DHT22;44771;49.982;8.560;2023-09-08T23:34:25;15.60;99.90
58983;DHT22;44771;49.982;8.560;2023-09-08T23:39:27;15.60;99.90
58983;DHT22;44771;49.982;8.560;2023-09-08T23:44:30;15.50;99.90
58983;DHT22;44771;49.982;8.560;2023-09-08T23:49:32;15.50;99.90
58983;DHT22;44771;49.982;8.560;2023-09-08T23:54:34;15.50;99.90
58983;DHT22;44771;49.982;8.560;2023-09-08T23:59:37;15.40;99.90
